sensor_id;sensor_type;location;lat;lon;timestamp;P1;durP1;ratioP1;P2;durP2;ratioP2
6937;SDS011;40040;42.706;23.372;2022-12-18T00:02:20;10.83;;;6.90;;
6937;SDS011;40040;42.706;23.372;2022-12-18T00:04:47;10.63;;;6.97;;
6937;SDS011;40040;42.706;23.372;2022-12-18T00:07:13;9.00;;;6.43;;
6937;SDS011;40040;42.706;23.372;2022-12-18T00:09:40;10.20;;;6.60;;
6937;SDS011;40040;42.706;23.372;2022-12-18T00:12:07;10.27;;;6.87;;
6937;SDS011;40040;42.706;23.372;2022-12-18T00:14:34;9.13;;;6.17;;
6937;SDS011;40040;42.706;23.372;2022-12-18T00:17:03;11.53;;;6.47;;
6937;SDS011;40040;42.706;23.372;2022-12-18T00:19:30;9.27;;;5.97;;
6937;SDS011;40040;42.706;23.372;2022-12-18T00:21:57;9.67;;;6.30;;
6937;SDS011;40040;42.706;23.372;2022-12-18T00:24:24;9.80;;;6.37;;
6937;SDS011;40040;42.706;23.372;2022-12-18T00:26:51;10.33;;;6.80;;
6937;SDS011;40040;42.706;23.372;2022-12-18T00:29:17;8.03;;;6.03;;
6937;SDS011;40040;42.706;23.372;2022-12-18T00:31:44;10.87;;;7.27;;
6937;SDS011;40040;42.706;23.372;2022-12-18T00:34:13;12.90;;;6.67;;
6937;SDS011;40040;42.706;23.372;2022-12-18T00:36:40;11.30;;;6.97;;
6937;SDS011;40040;42.706;23.372;2022-12-18T00:39:07;11.47;;;6.77;;
6937;SDS011;40040;42.706;23.372;2022-12-18T00:41:34;9.73;;;6.90;;
6937;SDS011;40040;42.706;23.372;2022-12-18T00:44:18;10.53;;;7.17;;
6937;SDS011;40040;42.706;23.372;2022-12-18T00:46:47;10.00;;;6.90;;
6937;SDS011;40040;42.706;23.372;2022-12-18T00:49:16;11.67;;;7.47;;
6937;SDS011;40040;42.706;23.372;2022-12-18T00:51:43;10.77;;;7.00;;
6937;SDS011;40040;42.706;23.372;2022-12-18T00:54:10;10.87;;;6.73;;
6937;SDS011;40040;42.706;23.372;2022-12-18T00:56:40;10.90;;;7.20;;
6937;SDS011;40040;42.706;23.372;2022-12-18T00:59:16;12.43;;;7.40;;
6937;SDS011;40040;42.706;23.372;2022-12-18T01:01:45;10.60;;;6.80;;
6937;SDS011;40040;42.706;23.372;2022-12-18T01:04:13;10.80;;;7.23;;
6937;SDS011;40040;42.706;23.372;2022-12-18T01:06:41;10.00;;;5.97;;
6937;SDS011;40040;42.706;23.372;2022-12-18T01:09:09;12.20;;;7.10;;
6937;SDS011;40040;42.706;23.372;2022-12-18T01:11:36;9.13;;;6.23;;
6937;SDS011;40040;42.706;23.372;2022-12-18T01:14:03;12.27;;;7.00;;
6937;SDS011;40040;42.706;23.372;2022-12-18T01:16:30;12.67;;;7.40;;
6937;SDS011;40040;42.706;23.372;2022-12-18T01:18:57;11.23;;;7.27;;
6937;SDS011;40040;42.706;23.372;2022-12-18T01:21:24;11.93;;;6.47;;
6937;SDS011;40040;42.706;23.372;2022-12-18T01:23:53;10.77;;;6.90;;
6937;SDS011;40040;42.706;23.372;2022-12-18T01:26:21;10.83;;;6.83;;
6937;SDS011;40040;42.706;23.372;2022-12-18T01:28:48;11.10;;;6.73;;
6937;SDS011;40040;42.706;23.372;2022-12-18T01:31:16;11.13;;;7.40;;
6937;SDS011;40040;42.706;23.372;2022-12-18T01:33:44;9.47;;;7.07;;
6937;SDS011;40040;42.706;23.372;2022-12-18T01:36:15;11.90;;;7.47;;
6937;SDS011;40040;42.706;23.372;2022-12-18T01:38:43;12.03;;;7.63;;
6937;SDS011;40040;42.706;23.372;2022-12-18T01:41:11;11.80;;;7.57;;
6937;SDS011;40040;42.706;23.372;2022-12-18T01:43:42;12.70;;;7.40;;
6937;SDS011;40040;42.706;23.372;2022-12-18T01:46:11;12.07;;;7.17;;
6937;SDS011;40040;42.706;23.372;2022-12-18T01:48:38;13.60;;;7.43;;
6937;SDS011;40040;42.706;23.372;2022-12-18T01:51:07;13.63;;;8.17;;
6937;SDS011;40040;42.706;23.372;2022-12-18T01:53:35;15.20;;;7.93;;
6937;SDS011;40040;42.706;23.372;2022-12-18T01:56:03;12.20;;;7.60;;
6937;SDS011;40040;42.706;23.372;2022-12-18T01:58:32;11.90;;;7.47;;
6937;SDS011;40040;42.706;23.372;2022-12-18T02:01:06;12.07;;;7.17;;
6937;SDS011;40040;42.706;23.372;2022-12-18T02:03:33;11.00;;;7.47;;
6937;SDS011;40040;42.706;23.372;2022-12-18T02:06:01;9.10;;;6.53;;
6937;SDS011;40040;42.706;23.372;2022-12-18T02:08:36;9.63;;;6.90;;
6937;SDS011;40040;42.706;23.372;2022-12-18T02:11:10;12.73;;;6.93;;
6937;SDS011;40040;42.706;23.372;2022-12-18T02:13:49;11.17;;;7.03;;
6937;SDS011;40040;42.706;23.372;2022-12-18T02:16:26;11.30;;;7.20;;
6937;SDS011;40040;42.706;23.372;2022-12-18T02:19:01;11.43;;;7.13;;
6937;SDS011;40040;42.706;23.372;2022-12-18T02:21:36;12.07;;;7.67;;
6937;SDS011;40040;42.706;23.372;2022-12-18T02:24:18;10.80;;;7.00;;
6937;SDS011;40040;42.706;23.372;2022-12-18T02:26:58;11.57;;;6.87;;
6937;SDS011;40040;42.706;23.372;2022-12-18T02:29:29;10.70;;;6.60;;
6937;SDS011;40040;42.706;23.372;2022-12-18T02:32:00;8.90;;;6.67;;
6937;SDS011;40040;42.706;23.372;2022-12-18T02:34:32;10.90;;;6.40;;
6937;SDS011;40040;42.706;23.372;2022-12-18T02:37:04;11.70;;;6.50;;
6937;SDS011;40040;42.706;23.372;2022-12-18T02:39:35;11.30;;;6.30;;
6937;SDS011;40040;42.706;23.372;2022-12-18T02:42:06;7.73;;;5.73;;
6937;SDS011;40040;42.706;23.372;2022-12-18T02:44:33;8.80;;;5.77;;
6937;SDS011;40040;42.706;23.372;2022-12-18T02:47:01;7.80;;;5.57;;
6937;SDS011;40040;42.706;23.372;2022-12-18T02:49:31;10.23;;;6.37;;
6937;SDS011;40040;42.706;23.372;2022-12-18T02:52:07;11.57;;;6.07;;
6937;SDS011;40040;42.706;23.372;2022-12-18T02:54:51;9.17;;;5.73;;
6937;SDS011;40040;42.706;23.372;2022-12-18T02:57:31;10.73;;;5.93;;
6937;SDS011;40040;42.706;23.372;2022-12-18T03:00:03;11.10;;;6.53;;
6937;SDS011;40040;42.706;23.372;2022-12-18T03:02:36;11.23;;;6.80;;
6937;SDS011;40040;42.706;23.372;2022-12-18T03:05:10;8.30;;;5.77;;
6937;SDS011;40040;42.706;23.372;2022-12-18T03:07:42;8.23;;;6.50;;
6937;SDS011;40040;42.706;23.372;2022-12-18T03:10:13;10.97;;;6.13;;
6937;SDS011;40040;42.706;23.372;2022-12-18T03:12:46;11.70;;;7.00;;
6937;SDS011;40040;42.706;23.372;2022-12-18T03:15:18;7.50;;;5.13;;
6937;SDS011;40040;42.706;23.372;2022-12-18T03:17:49;9.97;;;5.67;;
6937;SDS011;40040;42.706;23.372;2022-12-18T03:20:21;11.57;;;7.03;;
6937;SDS011;40040;42.706;23.372;2022-12-18T03:22:52;8.70;;;6.27;;
6937;SDS011;40040;42.706;23.372;2022-12-18T03:25:23;11.60;;;7.10;;
6937;SDS011;40040;42.706;23.372;2022-12-18T03:27:54;12.97;;;6.43;;
6937;SDS011;40040;42.706;23.372;2022-12-18T03:30:25;13.27;;;7.20;;
6937;SDS011;40040;42.706;23.372;2022-12-18T03:32:56;11.93;;;6.70;;
6937;SDS011;40040;42.706;23.372;2022-12-18T03:35:30;11.73;;;6.70;;
6937;SDS011;40040;42.706;23.372;2022-12-18T03:38:01;11.63;;;6.40;;
6937;SDS011;40040;42.706;23.372;2022-12-18T03:40:29;11.33;;;6.87;;
6937;SDS011;40040;42.706;23.372;2022-12-18T03:43:08;9.60;;;6.40;;
6937;SDS011;40040;42.706;23.372;2022-12-18T03:45:39;9.17;;;6.30;;
6937;SDS011;40040;42.706;23.372;2022-12-18T03:48:10;10.20;;;6.50;;
6937;SDS011;40040;42.706;23.372;2022-12-18T03:50:44;9.07;;;6.17;;
6937;SDS011;40040;42.706;23.372;2022-12-18T03:53:18;12.33;;;6.80;;
6937;SDS011;40040;42.706;23.372;2022-12-18T03:55:55;12.33;;;6.60;;
6937;SDS011;40040;42.706;23.372;2022-12-18T03:58:26;11.03;;;6.50;;
6937;SDS011;40040;42.706;23.372;2022-12-18T04:00:55;10.73;;;6.77;;
6937;SDS011;40040;42.706;23.372;2022-12-18T04:03:26;10.70;;;6.57;;
6937;SDS011;40040;42.706;23.372;2022-12-18T04:05:56;9.53;;;6.13;;
6937;SDS011;40040;42.706;23.372;2022-12-18T04:08:26;10.50;;;6.70;;
6937;SDS011;40040;42.706;23.372;2022-12-18T04:10:54;9.77;;;6.70;;
6937;SDS011;40040;42.706;23.372;2022-12-18T04:13:27;12.40;;;7.37;;
6937;SDS011;40040;42.706;23.372;2022-12-18T04:15:55;12.30;;;7.30;;
6937;SDS011;40040;42.706;23.372;2022-12-18T04:18:22;14.70;;;7.50;;
6937;SDS011;40040;42.706;23.372;2022-12-18T04:20:49;13.70;;;7.43;;
6937;SDS011;40040;42.706;23.372;2022-12-18T04:23:15;13.30;;;7.63;;
6937;SDS011;40040;42.706;23.372;2022-12-18T04:25:42;12.60;;;7.20;;
6937;SDS011;40040;42.706;23.372;2022-12-18T04:28:09;15.10;;;7.83;;
6937;SDS011;40040;42.706;23.372;2022-12-18T04:30:37;12.40;;;7.53;;
6937;SDS011;40040;42.706;23.372;2022-12-18T04:33:07;14.97;;;8.20;;
6937;SDS011;40040;42.706;23.372;2022-12-18T04:35:35;17.67;;;8.90;;
6937;SDS011;40040;42.706;23.372;2022-12-18T04:38:01;17.70;;;7.10;;
6937;SDS011;40040;42.706;23.372;2022-12-18T04:40:28;12.30;;;8.00;;
6937;SDS011;40040;42.706;23.372;2022-12-18T04:42:55;11.50;;;7.47;;
6937;SDS011;40040;42.706;23.372;2022-12-18T04:45:22;15.73;;;7.60;;
6937;SDS011;40040;42.706;23.372;2022-12-18T04:47:50;13.37;;;7.97;;
6937;SDS011;40040;42.706;23.372;2022-12-18T04:50:17;15.87;;;7.97;;
6937;SDS011;40040;42.706;23.372;2022-12-18T04:52:44;14.93;;;8.27;;
6937;SDS011;40040;42.706;23.372;2022-12-18T04:55:11;13.30;;;8.10;;
6937;SDS011;40040;42.706;23.372;2022-12-18T04:57:37;11.67;;;6.33;;
6937;SDS011;40040;42.706;23.372;2022-12-18T05:00:05;16.00;;;7.97;;
6937;SDS011;40040;42.706;23.372;2022-12-18T05:02:33;17.87;;;8.90;;
6937;SDS011;40040;42.706;23.372;2022-12-18T05:05:01;16.60;;;8.43;;
6937;SDS011;40040;42.706;23.372;2022-12-18T05:07:28;15.37;;;8.60;;
6937;SDS011;40040;42.706;23.372;2022-12-18T05:09:54;15.63;;;7.73;;
6937;SDS011;40040;42.706;23.372;2022-12-18T05:12:21;18.03;;;8.43;;
6937;SDS011;40040;42.706;23.372;2022-12-18T05:14:50;15.80;;;8.47;;
6937;SDS011;40040;42.706;23.372;2022-12-18T05:17:16;13.83;;;8.13;;
6937;SDS011;40040;42.706;23.372;2022-12-18T05:19:43;18.07;;;8.80;;
6937;SDS011;40040;42.706;23.372;2022-12-18T05:22:12;14.20;;;8.70;;
6937;SDS011;40040;42.706;23.372;2022-12-18T05:24:38;19.33;;;8.97;;
6937;SDS011;40040;42.706;23.372;2022-12-18T05:27:05;19.73;;;8.83;;
6937;SDS011;40040;42.706;23.372;2022-12-18T05:29:32;18.20;;;9.30;;
6937;SDS011;40040;42.706;23.372;2022-12-18T05:31:59;14.87;;;8.93;;
6937;SDS011;40040;42.706;23.372;2022-12-18T05:34:26;17.40;;;9.47;;
6937;SDS011;40040;42.706;23.372;2022-12-18T05:36:53;16.80;;;9.27;;
6937;SDS011;40040;42.706;23.372;2022-12-18T05:39:21;17.33;;;9.40;;
6937;SDS011;40040;42.706;23.372;2022-12-18T05:41:48;18.57;;;9.37;;
6937;SDS011;40040;42.706;23.372;2022-12-18T05:44:15;19.13;;;9.80;;
6937;SDS011;40040;42.706;23.372;2022-12-18T05:46:41;19.30;;;9.77;;
6937;SDS011;40040;42.706;23.372;2022-12-18T05:49:08;19.57;;;9.53;;
6937;SDS011;40040;42.706;23.372;2022-12-18T05:51:35;18.10;;;9.40;;
6937;SDS011;40040;42.706;23.372;2022-12-18T05:54:02;17.97;;;8.97;;
6937;SDS011;40040;42.706;23.372;2022-12-18T05:56:30;18.87;;;8.93;;
6937;SDS011;40040;42.706;23.372;2022-12-18T05:58:57;18.60;;;9.10;;
6937;SDS011;40040;42.706;23.372;2022-12-18T06:01:25;18.43;;;10.10;;
6937;SDS011;40040;42.706;23.372;2022-12-18T06:03:52;19.77;;;9.57;;
6937;SDS011;40040;42.706;23.372;2022-12-18T06:06:20;23.27;;;10.77;;
6937;SDS011;40040;42.706;23.372;2022-12-18T06:08:48;17.67;;;9.43;;
6937;SDS011;40040;42.706;23.372;2022-12-18T06:11:17;20.50;;;8.87;;
6937;SDS011;40040;42.706;23.372;2022-12-18T06:13:49;18.07;;;9.87;;
6937;SDS011;40040;42.706;23.372;2022-12-18T06:16:16;21.00;;;10.53;;
6937;SDS011;40040;42.706;23.372;2022-12-18T06:18:43;16.60;;;9.60;;
6937;SDS011;40040;42.706;23.372;2022-12-18T06:21:10;16.93;;;9.03;;
6937;SDS011;40040;42.706;23.372;2022-12-18T06:23:37;20.63;;;9.67;;
6937;SDS011;40040;42.706;23.372;2022-12-18T06:26:04;20.23;;;9.87;;
6937;SDS011;40040;42.706;23.372;2022-12-18T06:28:31;17.70;;;9.20;;
6937;SDS011;40040;42.706;23.372;2022-12-18T06:31:00;18.47;;;10.17;;
6937;SDS011;40040;42.706;23.372;2022-12-18T06:33:27;18.20;;;9.37;;
6937;SDS011;40040;42.706;23.372;2022-12-18T06:35:54;18.00;;;9.20;;
6937;SDS011;40040;42.706;23.372;2022-12-18T06:38:26;16.73;;;8.93;;
6937;SDS011;40040;42.706;23.372;2022-12-18T06:40:53;21.90;;;9.70;;
6937;SDS011;40040;42.706;23.372;2022-12-18T06:43:20;18.47;;;9.50;;
6937;SDS011;40040;42.706;23.372;2022-12-18T06:45:47;18.53;;;9.13;;
6937;SDS011;40040;42.706;23.372;2022-12-18T06:48:19;20.63;;;9.70;;
6937;SDS011;40040;42.706;23.372;2022-12-18T06:50:45;18.87;;;9.47;;
6937;SDS011;40040;42.706;23.372;2022-12-18T06:53:12;16.07;;;9.30;;
6937;SDS011;40040;42.706;23.372;2022-12-18T06:55:39;19.90;;;9.57;;
6937;SDS011;40040;42.706;23.372;2022-12-18T06:58:06;18.57;;;9.07;;
6937;SDS011;40040;42.706;23.372;2022-12-18T07:00:33;21.00;;;9.90;;
6937;SDS011;40040;42.706;23.372;2022-12-18T07:02:59;19.20;;;10.13;;
6937;SDS011;40040;42.706;23.372;2022-12-18T07:05:28;17.27;;;9.07;;
6937;SDS011;40040;42.706;23.372;2022-12-18T07:07:54;17.77;;;9.50;;
6937;SDS011;40040;42.706;23.372;2022-12-18T07:10:21;19.33;;;9.50;;
6937;SDS011;40040;42.706;23.372;2022-12-18T07:12:48;19.33;;;9.80;;
6937;SDS011;40040;42.706;23.372;2022-12-18T07:15:15;19.90;;;9.07;;
6937;SDS011;40040;42.706;23.372;2022-12-18T07:17:42;16.73;;;9.17;;
6937;SDS011;40040;42.706;23.372;2022-12-18T07:20:09;19.73;;;9.53;;
6937;SDS011;40040;42.706;23.372;2022-12-18T07:22:38;15.97;;;8.80;;
6937;SDS011;40040;42.706;23.372;2022-12-18T07:25:05;22.57;;;10.17;;
6937;SDS011;40040;42.706;23.372;2022-12-18T07:27:33;15.60;;;8.90;;
6937;SDS011;40040;42.706;23.372;2022-12-18T07:30:00;18.30;;;9.00;;
6937;SDS011;40040;42.706;23.372;2022-12-18T07:32:27;17.17;;;8.90;;
6937;SDS011;40040;42.706;23.372;2022-12-18T07:34:54;18.03;;;9.47;;
6937;SDS011;40040;42.706;23.372;2022-12-18T07:37:21;20.47;;;10.07;;
6937;SDS011;40040;42.706;23.372;2022-12-18T07:39:49;18.27;;;9.90;;
6937;SDS011;40040;42.706;23.372;2022-12-18T07:42:16;22.07;;;10.23;;
6937;SDS011;40040;42.706;23.372;2022-12-18T07:44:58;22.87;;;10.33;;
6937;SDS011;40040;42.706;23.372;2022-12-18T07:47:25;21.00;;;10.73;;
6937;SDS011;40040;42.706;23.372;2022-12-18T07:49:52;22.20;;;11.37;;
6937;SDS011;40040;42.706;23.372;2022-12-18T07:52:19;19.97;;;10.23;;
6937;SDS011;40040;42.706;23.372;2022-12-18T07:54:46;24.40;;;11.77;;
6937;SDS011;40040;42.706;23.372;2022-12-18T07:57:16;20.33;;;10.80;;
6937;SDS011;40040;42.706;23.372;2022-12-18T07:59:43;20.87;;;10.20;;
6937;SDS011;40040;42.706;23.372;2022-12-18T08:02:10;21.23;;;10.53;;
6937;SDS011;40040;42.706;23.372;2022-12-18T08:04:36;16.40;;;9.30;;
6937;SDS011;40040;42.706;23.372;2022-12-18T08:07:03;20.90;;;10.50;;
6937;SDS011;40040;42.706;23.372;2022-12-18T08:09:33;21.63;;;10.67;;
6937;SDS011;40040;42.706;23.372;2022-12-18T08:11:59;20.83;;;9.90;;
6937;SDS011;40040;42.706;23.372;2022-12-18T08:14:28;26.70;;;12.67;;
6937;SDS011;40040;42.706;23.372;2022-12-18T08:16:54;25.47;;;11.00;;
6937;SDS011;40040;42.706;23.372;2022-12-18T08:19:21;24.67;;;12.23;;
6937;SDS011;40040;42.706;23.372;2022-12-18T08:21:48;18.77;;;10.03;;
6937;SDS011;40040;42.706;23.372;2022-12-18T08:24:15;20.13;;;11.40;;
6937;SDS011;40040;42.706;23.372;2022-12-18T08:26:42;21.87;;;11.97;;
6937;SDS011;40040;42.706;23.372;2022-12-18T08:29:09;25.87;;;12.67;;
6937;SDS011;40040;42.706;23.372;2022-12-18T08:31:37;21.47;;;10.57;;
6937;SDS011;40040;42.706;23.372;2022-12-18T08:34:04;25.23;;;11.80;;
6937;SDS011;40040;42.706;23.372;2022-12-18T08:36:31;21.77;;;10.23;;
6937;SDS011;40040;42.706;23.372;2022-12-18T08:38:58;20.90;;;10.57;;
6937;SDS011;40040;42.706;23.372;2022-12-18T08:41:25;19.90;;;10.23;;
6937;SDS011;40040;42.706;23.372;2022-12-18T08:43:52;23.00;;;11.10;;
6937;SDS011;40040;42.706;23.372;2022-12-18T08:46:38;21.43;;;11.10;;
6937;SDS011;40040;42.706;23.372;2022-12-18T08:49:06;21.83;;;10.17;;
6937;SDS011;40040;42.706;23.372;2022-12-18T08:51:34;19.73;;;10.63;;
6937;SDS011;40040;42.706;23.372;2022-12-18T08:54:01;19.87;;;10.40;;
6937;SDS011;40040;42.706;23.372;2022-12-18T08:56:29;23.60;;;11.23;;
6937;SDS011;40040;42.706;23.372;2022-12-18T08:58:56;19.17;;;9.47;;
6937;SDS011;40040;42.706;23.372;2022-12-18T09:01:23;23.93;;;11.73;;
6937;SDS011;40040;42.706;23.372;2022-12-18T09:03:52;21.17;;;10.27;;
6937;SDS011;40040;42.706;23.372;2022-12-18T09:06:20;24.03;;;11.53;;
6937;SDS011;40040;42.706;23.372;2022-12-18T09:08:48;19.73;;;9.60;;
6937;SDS011;40040;42.706;23.372;2022-12-18T09:11:15;18.67;;;9.33;;
6937;SDS011;40040;42.706;23.372;2022-12-18T09:13:47;17.50;;;9.53;;
6937;SDS011;40040;42.706;23.372;2022-12-18T09:16:14;20.37;;;9.97;;
6937;SDS011;40040;42.706;23.372;2022-12-18T09:18:41;20.97;;;9.83;;
6937;SDS011;40040;42.706;23.372;2022-12-18T09:21:10;16.70;;;9.27;;
6937;SDS011;40040;42.706;23.372;2022-12-18T09:23:38;18.17;;;8.17;;
6937;SDS011;40040;42.706;23.372;2022-12-18T09:26:06;20.33;;;10.57;;
6937;SDS011;40040;42.706;23.372;2022-12-18T09:28:33;19.63;;;10.17;;
6937;SDS011;40040;42.706;23.372;2022-12-18T09:31:03;28.87;;;12.97;;
6937;SDS011;40040;42.706;23.372;2022-12-18T09:33:30;20.77;;;9.97;;
6937;SDS011;40040;42.706;23.372;2022-12-18T09:35:57;20.87;;;10.37;;
6937;SDS011;40040;42.706;23.372;2022-12-18T09:38:28;20.53;;;10.03;;
6937;SDS011;40040;42.706;23.372;2022-12-18T09:40:56;20.27;;;10.53;;
6937;SDS011;40040;42.706;23.372;2022-12-18T09:43:28;22.40;;;11.97;;
6937;SDS011;40040;42.706;23.372;2022-12-18T09:46:03;19.63;;;10.40;;
6937;SDS011;40040;42.706;23.372;2022-12-18T09:48:34;20.40;;;9.23;;
6937;SDS011;40040;42.706;23.372;2022-12-18T09:51:06;25.80;;;12.13;;
6937;SDS011;40040;42.706;23.372;2022-12-18T09:53:41;25.67;;;12.07;;
6937;SDS011;40040;42.706;23.372;2022-12-18T09:56:15;22.47;;;11.83;;
6937;SDS011;40040;42.706;23.372;2022-12-18T09:58:45;23.37;;;11.20;;
6937;SDS011;40040;42.706;23.372;2022-12-18T10:01:18;18.13;;;9.53;;
6937;SDS011;40040;42.706;23.372;2022-12-18T10:03:49;17.50;;;9.70;;
6937;SDS011;40040;42.706;23.372;2022-12-18T10:06:18;16.93;;;9.73;;
6937;SDS011;40040;42.706;23.372;2022-12-18T10:08:51;19.70;;;9.73;;
6937;SDS011;40040;42.706;23.372;2022-12-18T10:11:30;16.37;;;9.80;;
6937;SDS011;40040;42.706;23.372;2022-12-18T10:14:06;17.17;;;9.67;;
6937;SDS011;40040;42.706;23.372;2022-12-18T10:16:43;22.60;;;10.57;;
6937;SDS011;40040;42.706;23.372;2022-12-18T10:19:26;25.90;;;12.27;;
6937;SDS011;40040;42.706;23.372;2022-12-18T10:22:04;23.70;;;12.20;;
6937;SDS011;40040;42.706;23.372;2022-12-18T10:24:44;24.33;;;11.43;;
6937;SDS011;40040;42.706;23.372;2022-12-18T10:27:17;19.70;;;10.67;;
6937;SDS011;40040;42.706;23.372;2022-12-18T10:29:48;17.13;;;9.43;;
6937;SDS011;40040;42.706;23.372;2022-12-18T10:32:15;18.40;;;10.30;;
6937;SDS011;40040;42.706;23.372;2022-12-18T10:34:45;19.57;;;9.70;;
6937;SDS011;40040;42.706;23.372;2022-12-18T10:37:14;16.90;;;8.83;;
6937;SDS011;40040;42.706;23.372;2022-12-18T10:39:45;19.83;;;10.60;;
6937;SDS011;40040;42.706;23.372;2022-12-18T10:42:16;17.23;;;9.80;;
6937;SDS011;40040;42.706;23.372;2022-12-18T10:44:44;17.57;;;9.47;;
6937;SDS011;40040;42.706;23.372;2022-12-18T10:47:12;19.33;;;9.37;;
6937;SDS011;40040;42.706;23.372;2022-12-18T10:49:47;19.57;;;10.27;;
6937;SDS011;40040;42.706;23.372;2022-12-18T10:52:17;20.07;;;9.80;;
6937;SDS011;40040;42.706;23.372;2022-12-18T10:54:50;19.67;;;9.83;;
6937;SDS011;40040;42.706;23.372;2022-12-18T11:00:20;19.07;;;9.57;;
6937;SDS011;40040;42.706;23.372;2022-12-18T11:02:49;19.07;;;11.00;;
6937;SDS011;40040;42.706;23.372;2022-12-18T11:05:23;21.97;;;10.87;;
6937;SDS011;40040;42.706;23.372;2022-12-18T11:07:53;20.03;;;9.17;;
6937;SDS011;40040;42.706;23.372;2022-12-18T11:10:22;20.37;;;10.07;;
6937;SDS011;40040;42.706;23.372;2022-12-18T11:12:52;21.03;;;11.93;;
6937;SDS011;40040;42.706;23.372;2022-12-18T11:15:20;24.67;;;11.77;;
6937;SDS011;40040;42.706;23.372;2022-12-18T11:17:48;18.43;;;9.70;;
6937;SDS011;40040;42.706;23.372;2022-12-18T11:20:21;30.97;;;12.93;;
6937;SDS011;40040;42.706;23.372;2022-12-18T11:22:55;18.10;;;10.03;;
6937;SDS011;40040;42.706;23.372;2022-12-18T11:25:25;18.47;;;9.67;;
6937;SDS011;40040;42.706;23.372;2022-12-18T11:27:54;23.07;;;10.33;;
6937;SDS011;40040;42.706;23.372;2022-12-18T11:30:23;24.20;;;11.10;;
6937;SDS011;40040;42.706;23.372;2022-12-18T11:32:52;21.13;;;9.73;;
6937;SDS011;40040;42.706;23.372;2022-12-18T11:35:23;18.57;;;9.00;;
6937;SDS011;40040;42.706;23.372;2022-12-18T11:38:01;24.57;;;12.07;;
6937;SDS011;40040;42.706;23.372;2022-12-18T11:40:34;24.73;;;12.67;;
6937;SDS011;40040;42.706;23.372;2022-12-18T11:43:04;18.57;;;10.30;;
6937;SDS011;40040;42.706;23.372;2022-12-18T11:45:38;25.80;;;11.13;;
6937;SDS011;40040;42.706;23.372;2022-12-18T11:48:14;19.50;;;9.00;;
6937;SDS011;40040;42.706;23.372;2022-12-18T11:50:46;19.53;;;10.03;;
6937;SDS011;40040;42.706;23.372;2022-12-18T11:53:16;22.57;;;10.97;;
6937;SDS011;40040;42.706;23.372;2022-12-18T11:55:49;23.83;;;11.37;;
6937;SDS011;40040;42.706;23.372;2022-12-18T12:01:16;20.00;;;10.43;;
6937;SDS011;40040;42.706;23.372;2022-12-18T12:04:00;19.00;;;9.90;;
6937;SDS011;40040;42.706;23.372;2022-12-18T12:06:45;23.13;;;10.43;;
6937;SDS011;40040;42.706;23.372;2022-12-18T12:09:21;26.30;;;12.67;;
6937;SDS011;40040;42.706;23.372;2022-12-18T12:11:58;25.93;;;12.30;;
6937;SDS011;40040;42.706;23.372;2022-12-18T12:14:41;19.17;;;9.37;;
6937;SDS011;40040;42.706;23.372;2022-12-18T12:17:16;19.47;;;11.43;;
6937;SDS011;40040;42.706;23.372;2022-12-18T12:19:55;23.50;;;12.20;;
6937;SDS011;40040;42.706;23.372;2022-12-18T12:22:32;22.97;;;11.40;;
6937;SDS011;40040;42.706;23.372;2022-12-18T12:25:14;18.90;;;10.10;;
6937;SDS011;40040;42.706;23.372;2022-12-18T12:27:50;21.07;;;10.07;;
6937;SDS011;40040;42.706;23.372;2022-12-18T12:30:29;20.27;;;10.90;;
6937;SDS011;40040;42.706;23.372;2022-12-18T12:33:08;24.53;;;12.43;;
6937;SDS011;40040;42.706;23.372;2022-12-18T12:35:47;21.63;;;10.67;;
6937;SDS011;40040;42.706;23.372;2022-12-18T12:38:23;24.20;;;11.50;;
6937;SDS011;40040;42.706;23.372;2022-12-18T12:40:56;22.17;;;10.67;;
6937;SDS011;40040;42.706;23.372;2022-12-18T12:43:28;23.70;;;11.67;;
6937;SDS011;40040;42.706;23.372;2022-12-18T12:46:00;22.50;;;9.93;;
6937;SDS011;40040;42.706;23.372;2022-12-18T12:48:33;25.23;;;9.97;;
6937;SDS011;40040;42.706;23.372;2022-12-18T12:51:07;17.23;;;9.47;;
6937;SDS011;40040;42.706;23.372;2022-12-18T12:53:39;23.90;;;10.23;;
6937;SDS011;40040;42.706;23.372;2022-12-18T12:56:06;18.93;;;10.20;;
6937;SDS011;40040;42.706;23.372;2022-12-18T12:58:38;18.73;;;9.63;;
6937;SDS011;40040;42.706;23.372;2022-12-18T13:01:13;24.23;;;11.83;;
6937;SDS011;40040;42.706;23.372;2022-12-18T13:03:51;18.53;;;10.20;;
6937;SDS011;40040;42.706;23.372;2022-12-18T13:06:25;18.77;;;9.07;;
6937;SDS011;40040;42.706;23.372;2022-12-18T13:09:00;23.13;;;10.43;;
6937;SDS011;40040;42.706;23.372;2022-12-18T13:11:32;16.50;;;9.07;;
6937;SDS011;40040;42.706;23.372;2022-12-18T13:14:23;21.10;;;9.97;;
6937;SDS011;40040;42.706;23.372;2022-12-18T13:16:53;19.13;;;9.27;;
6937;SDS011;40040;42.706;23.372;2022-12-18T13:19:40;18.13;;;8.90;;
6937;SDS011;40040;42.706;23.372;2022-12-18T13:22:19;17.87;;;8.80;;
6937;SDS011;40040;42.706;23.372;2022-12-18T13:24:48;21.10;;;10.20;;
6937;SDS011;40040;42.706;23.372;2022-12-18T13:27:45;35.43;;;12.80;;
6937;SDS011;40040;42.706;23.372;2022-12-18T13:36:09;20.20;;;10.63;;
6937;SDS011;40040;42.706;23.372;2022-12-18T13:38:40;34.23;;;15.10;;
6937;SDS011;40040;42.706;23.372;2022-12-18T13:41:21;28.90;;;13.73;;
6937;SDS011;40040;42.706;23.372;2022-12-18T13:43:51;31.00;;;14.77;;
6937;SDS011;40040;42.706;23.372;2022-12-18T13:46:21;20.67;;;9.90;;
6937;SDS011;40040;42.706;23.372;2022-12-18T13:48:52;23.33;;;10.50;;
6937;SDS011;40040;42.706;23.372;2022-12-18T13:51:21;19.97;;;9.87;;
6937;SDS011;40040;42.706;23.372;2022-12-18T13:53:50;21.10;;;10.93;;
6937;SDS011;40040;42.706;23.372;2022-12-18T13:56:22;19.53;;;9.57;;
6937;SDS011;40040;42.706;23.372;2022-12-18T13:59:03;24.53;;;11.30;;
6937;SDS011;40040;42.706;23.372;2022-12-18T14:01:42;18.23;;;9.47;;
6937;SDS011;40040;42.706;23.372;2022-12-18T14:04:18;22.77;;;11.17;;
6937;SDS011;40040;42.706;23.372;2022-12-18T14:06:47;20.03;;;10.50;;
6937;SDS011;40040;42.706;23.372;2022-12-18T14:09:15;20.83;;;10.07;;
6937;SDS011;40040;42.706;23.372;2022-12-18T14:11:49;20.40;;;11.10;;
6937;SDS011;40040;42.706;23.372;2022-12-18T14:14:18;17.90;;;9.60;;
6937;SDS011;40040;42.706;23.372;2022-12-18T14:16:47;20.50;;;9.63;;
6937;SDS011;40040;42.706;23.372;2022-12-18T14:19:14;18.10;;;10.13;;
6937;SDS011;40040;42.706;23.372;2022-12-18T14:21:47;17.73;;;9.47;;
6937;SDS011;40040;42.706;23.372;2022-12-18T14:24:16;18.20;;;9.53;;
6937;SDS011;40040;42.706;23.372;2022-12-18T14:26:46;20.90;;;10.43;;
6937;SDS011;40040;42.706;23.372;2022-12-18T14:29:20;22.77;;;9.23;;
6937;SDS011;40040;42.706;23.372;2022-12-18T14:32:09;21.40;;;10.17;;
6937;SDS011;40040;42.706;23.372;2022-12-18T14:34:39;18.63;;;9.40;;
6937;SDS011;40040;42.706;23.372;2022-12-18T14:37:08;25.73;;;10.37;;
6937;SDS011;40040;42.706;23.372;2022-12-18T14:39:36;21.10;;;11.07;;
6937;SDS011;40040;42.706;23.372;2022-12-18T14:42:03;19.93;;;9.97;;
6937;SDS011;40040;42.706;23.372;2022-12-18T14:44:30;18.40;;;8.90;;
6937;SDS011;40040;42.706;23.372;2022-12-18T14:46:57;18.90;;;8.73;;
6937;SDS011;40040;42.706;23.372;2022-12-18T14:49:26;17.43;;;8.80;;
6937;SDS011;40040;42.706;23.372;2022-12-18T14:51:57;17.50;;;8.63;;
6937;SDS011;40040;42.706;23.372;2022-12-18T14:54:27;15.87;;;8.33;;
6937;SDS011;40040;42.706;23.372;2022-12-18T14:56:56;19.13;;;9.30;;
6937;SDS011;40040;42.706;23.372;2022-12-18T14:59:27;16.83;;;8.40;;
6937;SDS011;40040;42.706;23.372;2022-12-18T15:02:00;20.77;;;9.80;;